Time;durP1;ratioP1;P1;durP2;ratioP2;P2;SDS_P1;SDS_P2;PMS_P1;PMS_P2;Temp;Humidity;BMP_temperature;BMP_pressure;BME280_temperature;BME280_humidity;BME280_pressure;Samples;Min_cycle;Max_cycle;Signal;HPM_P1;HPM_P2
2024/04/24 00:01:53;;;;;;;0.10;0.10;;;5.90;80.60;;;;;;5151689;27;20045;-74
2024/04/24 00:04:19;;;;;;;0.10;0.10;;;5.80;80.50;;;;;;5170282;27;20038;-73
2024/04/24 00:06:44;;;;;;;0.20;0.20;;;5.80;80.60;;;;;;5170233;27;20035;-73
2024/04/24 00:09:10;;;;;;;0.20;0.20;;;5.80;80.70;;;;;;5157045;27;20039;-73
2024/04/24 00:11:36;;;;;;;1.27;0.20;;;5.80;80.70;;;;;;5137551;27;20489;-73
2024/04/24 00:14:01;;;;;;;0.10;0.10;;;5.80;80.70;;;;;;5136331;27;20188;-73
2024/04/24 00:16:27;;;;;;;0.20;0.20;;;5.80;80.80;;;;;;5156377;27;20058;-74
2024/04/24 00:18:53;;;;;;;0.15;0.10;;;5.80;80.80;;;;;;5137698;27;20066;-73
2024/04/24 00:21:19;;;;;;;0.60;0.20;;;5.70;80.80;;;;;;5103195;27;20128;-74
2024/04/24 00:23:46;;;;;;;0.32;0.17;;;5.80;80.80;;;;;;5137962;27;20030;-73
2024/04/24 00:26:11;;;;;;;0.10;0.10;;;5.80;80.90;;;;;;5156027;27;20051;-72
2024/04/24 00:28:38;;;;;;;0.25;0.10;;;5.70;80.80;;;;;;5120258;27;20046;-74
2024/04/24 00:31:03;;;;;;;0.10;0.10;;;5.80;80.90;;;;;;5119999;27;20092;-74
2024/04/24 00:33:29;;;;;;;1.50;0.20;;;5.70;80.80;;;;;;5135069;27;20494;-73
2024/04/24 00:35:55;;;;;;;0.20;0.10;;;5.80;80.80;;;;;;5156042;27;20050;-73
2024/04/24 00:38:20;;;;;;;0.15;0.10;;;5.80;80.80;;;;;;5155400;27;20060;-73
2024/04/24 00:40:46;;;;;;;0.20;0.20;;;5.80;80.70;;;;;;5135560;27;20047;-73
2024/04/24 00:43:12;;;;;;;1.20;0.20;;;5.80;80.70;;;;;;5155593;27;20076;-74
2024/04/24 00:45:38;;;;;;;0.20;0.20;;;5.80;80.70;;;;;;5155395;27;20034;-74
2024/04/24 00:48:05;;;;;;;0.15;0.15;;;5.80;80.70;;;;;;5155878;27;20555;-73
2024/04/24 00:50:31;;;;;;;0.20;0.20;;;5.80;80.80;;;;;;5155626;27;20070;-73
2024/04/24 00:52:57;;;;;;;0.40;0.30;;;5.70;80.70;;;;;;5137615;27;20060;-73
2024/04/24 00:55:23;;;;;;;0.20;0.20;;;5.80;80.80;;;;;;5155254;27;20146;-74
2024/04/24 00:57:49;;;;;;;0.30;0.20;;;5.70;80.70;;;;;;5155266;27;20050;-74
2024/04/24 01:00:15;;;;;;;0.10;0.10;;;5.70;80.70;;;;;;5155397;27;20434;-74
2024/04/24 01:02:42;;;;;;;0.25;0.25;;;5.70;80.60;;;;;;5119579;27;20047;-73
2024/04/24 01:05:07;;;;;;;0.10;0.05;;;5.70;80.60;;;;;;5118323;27;20398;-73
2024/04/24 01:07:35;;;;;;;0.35;0.10;;;5.70;80.60;;;;;;5134664;27;20058;-73
2024/04/24 01:10:16;;;;;;;0.25;0.20;;;5.70;80.60;;;;;;5155467;27;20039;-73
2024/04/24 01:12:42;;;;;;;0.15;0.15;;;5.70;80.60;;;;;;5136001;27;20043;-74
2024/04/24 01:15:08;;;;;;;0.20;0.20;;;5.70;80.60;;;;;;5155314;27;20062;-73
2024/04/24 01:17:37;;;;;;;0.20;0.20;;;5.70;80.60;;;;;;5119194;27;20047;-73
2024/04/24 01:20:06;;;;;;;0.13;0.10;;;5.70;80.60;;;;;;5153688;27;20053;-73
2024/04/24 01:22:52;;;;;;;0.35;0.20;;;5.70;80.60;;;;;;5136224;27;20035;-73
2024/04/24 01:25:27;;;;;;;0.20;0.20;;;5.70;80.60;;;;;;5154846;27;20200;-73
2024/04/24 01:27:53;;;;;;;0.30;0.10;;;5.70;80.50;;;;;;5155015;27;20043;-73
2024/04/24 01:30:19;;;;;;;0.20;0.20;;;5.70;80.60;;;;;;5154764;27;20037;-74
2024/04/24 01:32:44;;;;;;;0.20;0.20;;;5.70;80.60;;;;;;5135691;27;20081;-75
2024/04/24 01:35:10;;;;;;;0.10;0.10;;;5.70;80.60;;;;;;5154646;27;20043;-75
2024/04/24 01:37:36;;;;;;;1.02;0.20;;;5.70;80.60;;;;;;5135929;27;20090;-74
2024/04/24 01:40:01;;;;;;;0.10;0.10;;;5.70;80.50;;;;;;5135758;27;20039;-74
2024/04/24 01:42:27;;;;;;;0.10;0.10;;;5.70;80.50;;;;;;5154714;27;20053;-74
2024/04/24 01:44:53;;;;;;;0.25;0.20;;;5.70;80.60;;;;;;5136402;27;20030;-73
2024/04/24 01:47:18;;;;;;;0.10;0.10;;;5.70;80.60;;;;;;5154342;27;20046;-74
2024/04/24 01:49:44;;;;;;;0.20;0.20;;;5.70;80.50;;;;;;5118659;27;20494;-74
2024/04/24 01:52:10;;;;;;;0.38;0.20;;;5.60;80.50;;;;;;5136049;27;20039;-72
2024/04/24 01:54:36;;;;;;;1.02;0.17;;;5.70;80.60;;;;;;5154835;27;20035;-74
2024/04/24 01:57:01;;;;;;;0.20;0.10;;;5.70;80.60;;;;;;5154246;27;20440;-74
2024/04/24 01:59:27;;;;;;;0.10;0.10;;;5.60;80.50;;;;;;5154789;27;20125;-73
2024/04/24 02:01:53;;;;;;;0.10;0.10;;;5.60;80.50;;;;;;5154324;27;20041;-74
2024/04/24 02:04:18;;;;;;;0.35;0.20;;;5.60;80.60;;;;;;5118617;27;20093;-73
2024/04/24 02:06:44;;;;;;;0.10;0.10;;;5.70;80.60;;;;;;5154252;27;20043;-74
2024/04/24 02:09:10;;;;;;;0.10;0.10;;;5.70;80.60;;;;;;5135765;27;20050;-74
2024/04/24 02:11:36;;;;;;;0.10;0.10;;;5.60;80.50;;;;;;5118349;27;20125;-73
2024/04/24 02:14:02;;;;;;;0.90;0.20;;;5.60;80.50;;;;;;5154225;27;20126;-73
2024/04/24 02:16:27;;;;;;;0.20;0.13;;;5.60;80.60;;;;;;5135780;27;20070;-73
2024/04/24 02:18:53;;;;;;;0.17;0.13;;;5.60;80.60;;;;;;5101811;27;20150;-73
2024/04/24 02:21:19;;;;;;;1.08;0.22;;;5.60;80.60;;;;;;5154504;27;20103;-74
2024/04/24 02:23:47;;;;;;;0.10;0.10;;;5.60;80.60;;;;;;5135165;27;20477;-73
2024/04/24 02:26:13;;;;;;;0.82;0.20;;;5.60;80.70;;;;;;5134195;27;20047;-74
2024/04/24 02:28:39;;;;;;;1.33;0.20;;;5.60;80.60;;;;;;5135266;27;20184;-72
2024/04/24 02:31:05;;;;;;;0.10;0.10;;;5.50;80.60;;;;;;5117795;27;20039;-74
2024/04/24 02:33:30;;;;;;;0.10;0.10;;;5.50;80.70;;;;;;5153547;27;20030;-74
2024/04/24 02:35:56;;;;;;;0.38;0.10;;;5.50;80.70;;;;;;5135002;27;20501;-74
2024/04/24 02:38:22;;;;;;;0.20;0.20;;;5.50;80.70;;;;;;5153834;27;20045;-74
2024/04/24 02:40:47;;;;;;;0.32;0.30;;;5.50;80.70;;;;;;5133994;27;20170;-73
2024/04/24 02:43:13;;;;;;;0.50;0.30;;;5.40;80.70;;;;;;5116274;27;20419;-73
2024/04/24 02:45:38;;;;;;;0.10;0.10;;;5.50;80.80;;;;;;5135651;27;20062;-73
2024/04/24 02:48:06;;;;;;;0.22;0.13;;;5.40;80.80;;;;;;5154026;27;20066;-73
2024/04/24 02:50:32;;;;;;;0.10;0.10;;;5.40;80.90;;;;;;5154055;27;20045;-74
2024/04/24 02:52:58;;;;;;;0.10;0.10;;;5.40;81.00;;;;;;5153476;27;20118;-73
2024/04/24 02:55:23;;;;;;;0.43;0.20;;;5.40;81.00;;;;;;5153399;27;20033;-74
2024/04/24 02:57:49;;;;;;;0.30;0.30;;;5.40;81.10;;;;;;5133937;27;20516;-73
2024/04/24 03:00:15;;;;;;;0.13;0.13;;;5.30;81.10;;;;;;5134847;27;20031;-73
2024/04/24 03:02:40;;;;;;;0.30;0.17;;;5.30;81.10;;;;;;5153416;27;20386;-74
2024/04/24 03:05:07;;;;;;;0.28;0.20;;;5.30;81.20;;;;;;5133759;27;20440;-74
2024/04/24 03:07:34;;;;;;;0.25;0.20;;;5.30;81.30;;;;;;5154062;27;20035;-73
2024/04/24 03:10:00;;;;;;;0.32;0.30;;;5.20;81.30;;;;;;5153541;27;20057;-74
2024/04/24 03:12:25;;;;;;;0.55;0.30;;;5.30;81.50;;;;;;5135329;27;20038;-73
2024/04/24 03:14:51;;;;;;;0.20;0.20;;;5.20;81.50;;;;;;5153733;27;20043;-74
2024/04/24 03:17:25;;;;;;;0.17;0.17;;;5.10;81.50;;;;;;5134852;27;20043;-74
2024/04/24 03:19:51;;;;;;;0.20;0.20;;;5.10;81.60;;;;;;5134743;27;20441;-73
2024/04/24 03:22:17;;;;;;;0.68;0.30;;;5.10;81.70;;;;;;5153282;27;20030;-73
2024/04/24 03:24:43;;;;;;;0.32;0.30;;;5.00;81.70;;;;;;5134879;27;20035;-73
2024/04/24 03:27:09;;;;;;;0.52;0.30;;;5.00;81.80;;;;;;5153431;27;20053;-74
2024/04/24 03:29:34;;;;;;;0.20;0.20;;;5.00;81.80;;;;;;5153011;27;20031;-73
2024/04/24 03:32:01;;;;;;;0.17;0.17;;;4.90;81.80;;;;;;5134596;27;20034;-74
2024/04/24 03:34:26;;;;;;;0.32;0.20;;;4.90;81.80;;;;;;5153022;27;20058;-73
2024/04/24 03:36:52;;;;;;;0.30;0.20;;;4.90;81.90;;;;;;5153358;27;20042;-73
2024/04/24 03:39:18;;;;;;;0.20;0.20;;;4.80;82.00;;;;;;5134656;27;20034;-72
2024/04/24 03:41:43;;;;;;;0.20;0.20;;;4.80;82.10;;;;;;5153266;27;20038;-73
2024/04/24 03:44:09;;;;;;;0.68;0.40;;;4.80;82.10;;;;;;5136812;27;20046;-73
2024/04/24 03:46:35;;;;;;;0.25;0.20;;;4.80;82.10;;;;;;5156681;27;20047;-74
2024/04/24 03:49:01;;;;;;;0.15;0.15;;;4.80;82.70;;;;;;5138096;27;20062;-73
2024/04/24 03:51:27;;;;;;;1.10;0.30;;;4.70;81.90;;;;;;5137165;27;20078;-74
2024/04/24 03:53:52;;;;;;;0.35;0.35;;;4.70;82.00;;;;;;5138037;27;20039;-74
2024/04/24 03:56:18;;;;;;;0.30;0.17;;;4.70;81.90;;;;;;5137496;27;20043;-74
2024/04/24 03:58:47;;;;;;;1.95;0.43;;;4.70;81.90;;;;;;5156173;27;20053;-74
2024/04/24 04:01:14;;;;;;;0.43;0.30;;;4.70;81.90;;;;;;5156230;27;20045;-74
2024/04/24 04:03:39;;;;;;;0.60;0.30;;;4.70;81.80;;;;;;5137780;27;20042;-74
2024/04/24 04:06:05;;;;;;;0.40;0.30;;;4.60;81.70;;;;;;5156558;27;20039;-74
2024/04/24 04:08:31;;;;;;;1.30;0.30;;;4.70;81.80;;;;;;5137849;27;20042;-73
2024/04/24 04:10:56;;;;;;;0.20;0.20;;;4.70;81.80;;;;;;5156169;27;20401;-74
2024/04/24 04:13:22;;;;;;;0.28;0.20;;;4.70;81.80;;;;;;5156386;27;20474;-74
2024/04/24 04:15:48;;;;;;;0.20;0.20;;;4.70;81.80;;;;;;5137017;27;20039;-73
2024/04/24 04:18:14;;;;;;;0.13;0.13;;;4.70;81.90;;;;;;5156575;27;20125;-74
2024/04/24 04:20:40;;;;;;;0.30;0.20;;;4.70;81.80;;;;;;5156303;27;20113;-74
2024/04/24 04:23:05;;;;;;;0.55;0.22;;;4.60;81.80;;;;;;5156017;27;20037;-74
2024/04/24 04:25:31;;;;;;;0.15;0.15;;;4.60;81.80;;;;;;5156309;27;20076;-73
2024/04/24 04:27:58;;;;;;;0.65;0.10;;;4.60;81.90;;;;;;5120411;27;20095;-73
2024/04/24 04:30:24;;;;;;;0.17;0.13;;;4.60;81.90;;;;;;5138064;27;20081;-72
2024/04/24 04:32:55;;;;;;;0.43;0.20;;;4.60;82.60;;;;;;5156398;27;20431;-74
2024/04/24 04:35:21;;;;;;;0.52;0.10;;;4.60;82.10;;;;;;5156011;27;20432;-74
2024/04/24 04:37:46;;;;;;;0.25;0.10;;;4.60;82.10;;;;;;5103813;27;20975;-72
2024/04/24 04:40:12;;;;;;;0.20;0.10;;;4.50;82.20;;;;;;5155678;27;20097;-73
2024/04/24 04:42:38;;;;;;;0.10;0.10;;;4.50;82.20;;;;;;5155676;27;20045;-73
2024/04/24 04:45:04;;;;;;;0.10;0.10;;;4.50;82.30;;;;;;5155822;27;20443;-73
2024/04/24 04:47:29;;;;;;;0.25;0.15;;;4.50;82.30;;;;;;5136007;27;20039;-75
2024/04/24 04:49:55;;;;;;;0.40;0.20;;;4.50;82.40;;;;;;5155995;27;20045;-74
2024/04/24 04:52:21;;;;;;;0.10;0.10;;;4.40;82.30;;;;;;5155823;27;20516;-74
2024/04/24 04:54:47;;;;;;;0.10;0.10;;;4.50;82.40;;;;;;5137187;27;20077;-73
2024/04/24 04:57:13;;;;;;;0.10;0.10;;;4.50;82.40;;;;;;5136839;27;20090;-74
2024/04/24 04:59:38;;;;;;;0.13;0.10;;;4.50;82.30;;;;;;5119704;27;20045;-74
2024/04/24 05:02:04;;;;;;;0.13;0.13;;;4.60;82.20;;;;;;5155599;27;20102;-74
2024/04/24 05:04:30;;;;;;;0.10;0.10;;;4.60;82.20;;;;;;5136734;27;20042;-75
2024/04/24 05:06:55;;;;;;;0.30;0.13;;;4.60;82.10;;;;;;5155817;27;20034;-74
2024/04/24 05:09:21;;;;;;;0.10;0.10;;;4.60;82.00;;;;;;5155507;27;20039;-74
2024/04/24 05:11:52;;;;;;;0.20;0.20;;;4.70;82.00;;;;;;5136949;27;20042;-73
2024/04/24 05:14:17;;;;;;;0.10;0.10;;;4.70;82.00;;;;;;5155282;27;20045;-74
2024/04/24 05:16:43;;;;;;;0.20;0.20;;;4.70;81.90;;;;;;5155683;27;20047;-74
2024/04/24 05:19:09;;;;;;;0.35;0.20;;;4.70;81.80;;;;;;5137164;27;20038;-72
2024/04/24 05:21:34;;;;;;;0.22;0.20;;;4.80;81.90;;;;;;5155721;27;20043;-74
2024/04/24 05:24:01;;;;;;;0.95;0.20;;;4.80;81.80;;;;;;5120264;27;20031;-74
2024/04/24 05:29:07;;;;;;;0.20;0.10;;;4.80;81.70;;;;;;5153096;27;20047;-74
2024/04/24 05:31:35;;;;;;;0.20;0.15;;;4.90;81.80;;;;;;5135232;27;20050;-74
2024/04/24 05:34:03;;;;;;;0.80;0.20;;;5.00;81.80;;;;;;5155468;27;20062;-74
2024/04/24 05:36:29;;;;;;;0.10;0.10;;;4.90;81.70;;;;;;5155933;27;20049;-74
2024/04/24 05:38:58;;;;;;;0.95;0.20;;;5.00;81.70;;;;;;5155698;27;20043;-75
2024/04/24 05:41:25;;;;;;;0.60;0.20;;;5.10;81.70;;;;;;5136796;27;20042;-74
2024/04/24 05:43:51;;;;;;;0.75;0.30;;;5.10;81.60;;;;;;5135969;27;20042;-75
2024/04/24 05:46:17;;;;;;;0.35;0.20;;;5.10;81.60;;;;;;5139064;27;20414;-74
2024/04/24 05:48:43;;;;;;;1.10;0.32;;;5.10;81.60;;;;;;5156502;27;20030;-74
2024/04/24 05:51:08;;;;;;;1.48;0.30;;;5.10;81.50;;;;;;5155268;27;20042;-73
2024/04/24 05:53:36;;;;;;;0.25;0.20;;;5.20;81.60;;;;;;5154786;27;20095;-74
2024/04/24 05:56:03;;;;;;;0.17;0.10;;;5.20;81.50;;;;;;5154832;27;20089;-73
2024/04/24 05:58:29;;;;;;;0.25;0.20;;;5.20;81.50;;;;;;5154583;27;20038;-73
2024/04/24 06:00:54;;;;;;;0.30;0.30;;;5.20;81.50;;;;;;5136008;27;20625;-74
2024/04/24 06:03:20;;;;;;;1.00;0.25;;;5.20;81.50;;;;;;5154384;27;20130;-74
2024/04/24 06:05:48;;;;;;;0.30;0.28;;;5.30;81.60;;;;;;5153422;27;20035;-75
2024/04/24 06:08:14;;;;;;;0.35;0.10;;;5.30;81.60;;;;;;5135475;27;20039;-75
2024/04/24 06:10:39;;;;;;;0.63;0.20;;;5.30;81.60;;;;;;5118303;27;20095;-74
2024/04/24 06:13:06;;;;;;;0.43;0.20;;;5.30;81.60;;;;;;5134172;27;20035;-74
2024/04/24 06:15:32;;;;;;;0.22;0.20;;;5.40;81.60;;;;;;5133338;27;20043;-75
2024/04/24 06:17:58;;;;;;;0.35;0.20;;;5.40;81.50;;;;;;5154492;27;20035;-74
2024/04/24 06:20:24;;;;;;;0.10;0.10;;;5.40;81.60;;;;;;5154319;27;20041;-73
2024/04/24 06:22:50;;;;;;;0.10;0.10;;;5.50;81.60;;;;;;5134490;27;20043;-74
2024/04/24 06:25:16;;;;;;;1.45;0.35;;;5.40;81.60;;;;;;5101042;27;20513;-74
2024/04/24 06:27:41;;;;;;;0.25;0.13;;;5.40;81.60;;;;;;5134518;27;20095;-75
2024/04/24 06:30:08;;;;;;;0.20;0.20;;;5.40;81.50;;;;;;5136009;27;20117;-74
2024/04/24 06:32:34;;;;;;;0.75;0.20;;;5.50;81.50;;;;;;5135603;27;20038;-74
2024/04/24 06:34:59;;;;;;;0.20;0.20;;;5.40;81.40;;;;;;5153655;27;20035;-73
2024/04/24 06:37:25;;;;;;;0.20;0.20;;;5.50;81.50;;;;;;5135449;27;20039;-74
2024/04/24 06:39:51;;;;;;;0.35;0.20;;;5.50;81.50;;;;;;5154710;27;20558;-74
2024/04/24 06:42:17;;;;;;;0.30;0.30;;;5.60;81.70;;;;;;5153950;27;20038;-74
2024/04/24 06:44:43;;;;;;;0.20;0.20;;;5.60;81.60;;;;;;5135560;27;20046;-74
2024/04/24 06:47:09;;;;;;;0.85;0.30;;;5.70;81.50;;;;;;5153881;27;20046;-74
2024/04/24 06:49:35;;;;;;;0.20;0.20;;;5.70;81.50;;;;;;5153874;27;20042;-74
2024/04/24 06:52:03;;;;;;;1.42;0.40;;;5.70;81.40;;;;;;5135203;27;20043;-74
2024/04/24 06:54:28;;;;;;;1.17;0.28;;;5.80;81.40;;;;;;5135538;27;20443;-74
2024/04/24 06:56:56;;;;;;;0.32;0.17;;;5.90;81.30;;;;;;5153694;27;20043;-73
2024/04/24 06:59:23;;;;;;;0.47;0.20;;;6.00;81.20;;;;;;5118366;27;20035;-74
2024/04/24 07:01:48;;;;;;;0.43;0.30;;;6.00;81.00;;;;;;5153561;27;20043;-73
2024/04/24 07:04:14;;;;;;;1.65;0.45;;;6.20;80.80;;;;;;5154113;27;20042;-73
2024/04/24 07:06:47;;;;;;;1.25;0.30;;;6.30;80.60;;;;;;5117814;27;20505;-74
2024/04/24 07:09:14;;;;;;;1.10;0.35;;;6.40;80.60;;;;;;5153775;27;20046;-74
2024/04/24 07:11:41;;;;;;;0.20;0.20;;;6.50;80.40;;;;;;5154042;27;20035;-75
2024/04/24 07:14:06;;;;;;;0.85;0.38;;;6.60;80.30;;;;;;5136769;27;20485;-75
2024/04/24 07:16:32;;;;;;;0.40;0.20;;;6.60;80.20;;;;;;5153804;27;20046;-75
2024/04/24 07:18:58;;;;;;;0.63;0.30;;;6.80;80.10;;;;;;5155992;27;20031;-74
2024/04/24 07:21:25;;;;;;;0.20;0.20;;;6.80;79.90;;;;;;5157380;27;20041;-74
2024/04/24 07:23:52;;;;;;;0.55;0.40;;;6.90;79.80;;;;;;5157565;27;20489;-74
2024/04/24 07:26:18;;;;;;;1.25;0.38;;;7.00;79.70;;;;;;5138816;27;20123;-75
2024/04/24 07:28:44;;;;;;;1.90;0.50;;;7.00;79.70;;;;;;5157901;27;20070;-76
2024/04/24 07:31:10;;;;;;;0.85;0.40;;;6.90;79.70;;;;;;5138764;27;20062;-74
2024/04/24 07:33:36;;;;;;;2.53;0.40;;;7.00;79.70;;;;;;5157275;27;20118;-75
2024/04/24 07:36:02;;;;;;;0.38;0.30;;;7.00;79.70;;;;;;5157019;27;20060;-75
2024/04/24 07:38:27;;;;;;;0.38;0.20;;;6.90;79.80;;;;;;5157839;27;20034;-74
2024/04/24 07:40:53;;;;;;;0.63;0.25;;;7.10;79.90;;;;;;5158702;27;20121;-75
2024/04/24 07:43:19;;;;;;;0.60;0.38;;;7.20;79.80;;;;;;5139572;27;20390;-74
2024/04/24 07:45:45;;;;;;;1.38;0.45;;;7.30;79.70;;;;;;5157588;27;20045;-74
2024/04/24 07:48:10;;;;;;;0.55;0.30;;;7.40;79.50;;;;;;5138376;27;20095;-74
2024/04/24 07:50:37;;;;;;;2.25;0.65;;;7.40;79.30;;;;;;5157856;27;20051;-76
2024/04/24 07:53:03;;;;;;;1.45;0.85;;;7.50;79.20;;;;;;5157789;27;20058;-76
2024/04/24 07:55:28;;;;;;;0.88;0.50;;;7.40;79.10;;;;;;5144779;27;20045;-75
2024/04/24 07:57:54;;;;;;;1.00;0.30;;;7.50;79.10;;;;;;5158893;27;20042;-75
2024/04/24 08:00:20;;;;;;;2.28;0.50;;;7.50;79.20;;;;;;5141029;27;20107;-75
2024/04/24 08:02:46;;;;;;;1.55;0.20;;;7.50;79.20;;;;;;5159369;27;20035;-75
2024/04/24 08:05:25;;;;;;;1.10;0.40;;;7.50;79.30;;;;;;5110926;27;20034;-76
2024/04/24 08:07:51;;;;;;;2.65;0.77;;;7.50;79.30;;;;;;5159725;27;20087;-76
2024/04/24 08:10:17;;;;;;;2.20;0.50;;;7.50;80.00;;;;;;5156773;27;20042;-76
2024/04/24 08:12:42;;;;;;;3.70;0.68;;;7.40;79.30;;;;;;5123395;27;20089;-75
2024/04/24 08:15:08;;;;;;;1.70;0.63;;;7.30;79.30;;;;;;5169765;27;20061;-75
2024/04/24 08:17:34;;;;;;;2.67;0.80;;;7.10;79.60;;;;;;5158483;27;20105;-74
2024/04/24 08:20:00;;;;;;;0.70;0.40;;;7.00;80.10;;;;;;5138784;27;20039;-74
2024/04/24 08:22:25;;;;;;;0.68;0.30;;;6.80;80.60;;;;;;5159884;27;20398;-75
2024/04/24 08:24:51;;;;;;;0.45;0.30;;;6.80;81.00;;;;;;5157979;27;20035;-74
2024/04/24 08:27:17;;;;;;;0.75;0.32;;;6.80;81.10;;;;;;5139382;27;20049;-75
2024/04/24 08:29:43;;;;;;;0.73;0.20;;;6.80;81.00;;;;;;5137017;27;20046;-74
2024/04/24 08:32:08;;;;;;;0.15;0.15;;;6.80;81.00;;;;;;5137416;27;20039;-74
2024/04/24 08:34:34;;;;;;;0.63;0.35;;;6.80;81.00;;;;;;5105725;27;20049;-74
2024/04/24 08:36:59;;;;;;;1.33;0.20;;;6.70;81.00;;;;;;5136199;27;20053;-74
2024/04/24 08:39:26;;;;;;;0.70;0.45;;;6.60;81.20;;;;;;5138398;27;20043;-74
2024/04/24 08:41:53;;;;;;;0.40;0.20;;;6.60;81.50;;;;;;5121587;27;20058;-74
2024/04/24 08:44:20;;;;;;;0.20;0.20;;;6.40;81.60;;;;;;5138805;27;20513;-74
2024/04/24 08:46:46;;;;;;;0.20;0.20;;;6.40;81.80;;;;;;5156965;27;20117;-74
2024/04/24 08:49:12;;;;;;;0.20;0.20;;;6.40;82.00;;;;;;5136895;27;20050;-74
2024/04/24 08:51:39;;;;;;;0.20;0.20;;;6.30;82.10;;;;;;5118770;27;20039;-74
2024/04/24 08:54:10;;;;;;;0.10;0.10;;;6.20;82.30;;;;;;5155914;27;20057;-74
2024/04/24 08:56:41;;;;;;;0.40;0.20;;;6.10;82.40;;;;;;5120269;27;20494;-74
2024/04/24 08:59:15;;;;;;;0.10;0.10;;;6.10;82.70;;;;;;5137693;27;20047;-75
2024/04/24 09:01:44;;;;;;;0.20;0.10;;;6.00;82.80;;;;;;5156400;27;20042;-75
2024/04/24 09:04:12;;;;;;;0.30;0.30;;;5.90;82.80;;;;;;5137181;27;20039;-75
2024/04/24 09:06:39;;;;;;;0.20;0.20;;;5.90;82.90;;;;;;5136926;27;20119;-74
2024/04/24 09:09:07;;;;;;;0.35;0.20;;;5.90;83.00;;;;;;5121862;27;20038;-75
2024/04/24 09:11:33;;;;;;;0.25;0.15;;;6.00;82.90;;;;;;5140774;27;20058;-75
2024/04/24 09:13:59;;;;;;;0.30;0.20;;;5.90;82.70;;;;;;5139253;27;20049;-76
2024/04/24 09:16:26;;;;;;;0.20;0.20;;;5.90;82.90;;;;;;5155231;27;20035;-75
2024/04/24 09:19:00;;;;;;;0.32;0.17;;;5.80;83.00;;;;;;5135029;27;20454;-74
2024/04/24 09:21:30;;;;;;;0.10;0.10;;;5.80;83.10;;;;;;5136595;27;20150;-74
2024/04/24 09:23:57;;;;;;;0.20;0.20;;;5.80;83.00;;;;;;5155749;27;20058;-75
2024/04/24 09:26:24;;;;;;;0.38;0.20;;;5.90;83.10;;;;;;5119720;27;20039;-74
2024/04/24 09:28:50;;;;;;;0.10;0.10;;;5.90;83.00;;;;;;5136967;27;20081;-73
2024/04/24 09:31:16;;;;;;;1.25;0.20;;;5.90;83.10;;;;;;5136280;27;20047;-74
2024/04/24 09:33:42;;;;;;;0.15;0.15;;;5.90;83.10;;;;;;5137003;27;20524;-75
2024/04/24 09:36:08;;;;;;;0.10;0.10;;;5.90;83.20;;;;;;5119763;27;20127;-75
2024/04/24 09:38:34;;;;;;;0.10;0.10;;;5.90;83.30;;;;;;5137473;27;20091;-74
2024/04/24 09:41:01;;;;;;;0.20;0.20;;;6.00;83.30;;;;;;5154004;27;20035;-73
2024/04/24 09:43:28;;;;;;;0.57;0.17;;;6.00;83.30;;;;;;5118192;27;20035;-75
2024/04/24 09:45:56;;;;;;;0.10;0.10;;;6.20;83.40;;;;;;5134848;27;20039;-73
2024/04/24 09:48:22;;;;;;;0.20;0.10;;;6.30;83.10;;;;;;5136315;27;20125;-73
2024/04/24 09:50:50;;;;;;;0.10;0.10;;;6.40;82.90;;;;;;5118449;27;20142;-73
2024/04/24 09:53:18;;;;;;;0.10;0.10;;;6.40;82.80;;;;;;5118593;27;20489;-74
2024/04/24 09:56:03;;;;;;;0.10;0.10;;;6.60;82.70;;;;;;5154848;27;20184;-74
2024/04/24 09:58:34;;;;;;;0.10;0.10;;;6.80;82.60;;;;;;5154329;27;20035;-74
2024/04/24 10:01:03;;;;;;;0.20;0.10;;;6.90;82.20;;;;;;5100923;27;20126;-73
2024/04/24 10:03:33;;;;;;;0.50;0.20;;;7.00;82.10;;;;;;5136067;27;20482;-73
2024/04/24 10:06:02;;;;;;;0.10;0.10;;;7.20;82.20;;;;;;5154484;27;20035;-73
2024/04/24 10:08:32;;;;;;;0.20;0.20;;;7.40;82.00;;;;;;5154244;27;20516;-73
2024/04/24 10:11:01;;;;;;;0.20;0.20;;;7.70;81.70;;;;;;5154788;27;20038;-73
2024/04/24 10:13:32;;;;;;;0.10;0.10;;;7.80;81.30;;;;;;5134111;27;20491;-72
2024/04/24 10:16:00;;;;;;;0.10;0.10;;;8.00;81.00;;;;;;5101840;27;20497;-73
2024/04/24 10:18:27;;;;;;;0.75;0.20;;;8.10;80.70;;;;;;5154594;27;20183;-73
2024/04/24 10:20:59;;;;;;;0.10;0.10;;;8.20;80.60;;;;;;5135772;27;20038;-74
2024/04/24 10:23:26;;;;;;;0.22;0.22;;;8.10;80.90;;;;;;5135690;27;20073;-73
2024/04/24 10:25:54;;;;;;;0.10;0.10;;;8.00;81.10;;;;;;5135008;27;20068;-73
2024/04/24 10:28:23;;;;;;;0.63;0.20;;;8.00;81.20;;;;;;5153973;27;20050;-74
2024/04/24 10:30:49;;;;;;;0.20;0.20;;;7.80;81.10;;;;;;5153950;27;20031;-73
2024/04/24 10:33:16;;;;;;;0.20;0.20;;;7.80;81.40;;;;;;5135503;27;20150;-73
2024/04/24 10:35:43;;;;;;;0.70;0.22;;;7.80;81.60;;;;;;5155888;27;20123;-75
2024/04/24 10:38:08;;;;;;;1.17;0.32;;;7.70;81.70;;;;;;5141771;27;20043;-75
2024/04/24 10:40:34;;;;;;;0.47;0.35;;;7.40;82.00;;;;;;5119577;27;20039;-76
2024/04/24 10:43:04;;;;;;;0.52;0.30;;;7.20;82.60;;;;;;5159449;27;20047;-76
2024/04/24 10:45:33;;;;;;;0.17;0.17;;;7.00;83.20;;;;;;5119228;27;20091;-75
2024/04/24 10:47:59;;;;;;;0.10;0.10;;;6.80;83.50;;;;;;5153844;27;20490;-75
2024/04/24 10:50:27;;;;;;;0.30;0.10;;;6.90;83.80;;;;;;5154174;27;20045;-74
2024/04/24 10:53:03;;;;;;;0.20;0.20;;;7.00;83.70;;;;;;5135300;27;20049;-74
2024/04/24 10:55:28;;;;;;;0.10;0.10;;;7.00;83.40;;;;;;5101199;27;20054;-74
2024/04/24 10:57:55;;;;;;;0.10;0.10;;;7.00;84.00;;;;;;5134061;27;20448;-75
2024/04/24 11:00:23;;;;;;;0.13;0.10;;;7.00;83.40;;;;;;5154242;27;20482;-74
2024/04/24 11:02:51;;;;;;;0.20;0.10;;;6.90;83.50;;;;;;5116588;27;20114;-75
2024/04/24 11:05:18;;;;;;;0.30;0.20;;;6.90;83.70;;;;;;5153584;27;20031;-75
2024/04/24 11:07:55;;;;;;;0.28;0.20;;;6.90;83.80;;;;;;5118038;27;20039;-74
2024/04/24 11:10:21;;;;;;;0.13;0.10;;;7.00;83.80;;;;;;5134395;27;20507;-74
2024/04/24 11:12:46;;;;;;;0.50;0.20;;;7.10;83.70;;;;;;5146253;27;20074;-77
2024/04/24 11:15:28;;;;;;;0.50;0.20;;;7.10;83.40;;;;;;5135810;27;20069;-75
2024/04/24 11:17:54;;;;;;;1.48;0.38;;;7.10;83.40;;;;;;5137979;27;20035;-74
2024/04/24 11:20:24;;;;;;;0.40;0.22;;;7.10;83.30;;;;;;5154400;27;20027;-75
2024/04/24 11:22:49;;;;;;;0.10;0.10;;;7.10;83.20;;;;;;5111139;28;20036;-75
2024/04/24 11:25:17;;;;;;;0.30;0.17;;;7.30;83.50;;;;;;5077879;28;20047;-74
2024/04/24 11:27:47;;;;;;;0.68;0.38;;;7.40;83.30;;;;;;5093998;28;20173;-74
2024/04/24 11:30:20;;;;;;;0.65;0.30;;;7.70;82.90;;;;;;5094575;28;20097;-74
2024/04/24 11:32:49;;;;;;;0.20;0.20;;;7.80;82.50;;;;;;5094421;28;20051;-74
2024/04/24 11:35:16;;;;;;;0.40;0.22;;;7.90;82.40;;;;;;5093621;28;20047;-74
2024/04/24 11:37:44;;;;;;;0.52;0.43;;;8.00;82.30;;;;;;5110080;28;20052;-74
2024/04/24 11:40:11;;;;;;;0.32;0.30;;;8.00;82.20;;;;;;5059302;28;20039;-74
2024/04/24 11:42:45;;;;;;;0.95;0.28;;;8.10;82.20;;;;;;5092812;28;20035;-74
2024/04/24 11:45:12;;;;;;;1.63;0.38;;;8.10;82.30;;;;;;5092755;28;20533;-74
2024/04/24 11:47:39;;;;;;;0.73;0.30;;;8.10;82.50;;;;;;5091131;28;20519;-73
2024/04/24 11:50:07;;;;;;;0.20;0.20;;;8.10;82.50;;;;;;5092885;28;20048;-73
2024/04/24 11:52:48;;;;;;;1.30;0.30;;;8.30;82.60;;;;;;5109698;28;20074;-74
2024/04/24 11:55:15;;;;;;;0.95;0.47;;;8.30;82.30;;;;;;5134182;27;20056;-74
2024/04/24 11:57:42;;;;;;;1.10;0.30;;;8.40;82.40;;;;;;5100550;27;20035;-76
2024/04/24 12:00:08;;;;;;;1.85;0.45;;;8.60;82.30;;;;;;5133068;27;20074;-75
2024/04/24 12:02:34;;;;;;;1.25;0.45;;;8.70;82.00;;;;;;5134407;27;20074;-74
2024/04/24 12:05:05;;;;;;;1.85;0.57;;;8.90;81.90;;;;;;5119448;27;20066;-76
2024/04/24 12:07:32;;;;;;;0.88;0.57;;;8.90;81.60;;;;;;5120725;27;20114;-74
2024/04/24 12:09:59;;;;;;;0.93;0.40;;;9.00;81.70;;;;;;5139916;27;20070;-75
2024/04/24 12:12:26;;;;;;;1.80;0.55;;;9.00;81.50;;;;;;5121508;27;20046;-74
2024/04/24 12:14:52;;;;;;;2.28;0.60;;;9.10;81.60;;;;;;5104338;27;20470;-75
2024/04/24 12:17:20;;;;;;;1.73;0.60;;;9.10;81.60;;;;;;5137889;27;20054;-74
2024/04/24 12:19:46;;;;;;;1.23;0.40;;;9.00;81.60;;;;;;5156094;27;20042;-73
2024/04/24 12:22:12;;;;;;;1.27;0.57;;;9.10;81.50;;;;;;5156705;27;20031;-74
2024/04/24 12:24:38;;;;;;;2.90;0.52;;;9.10;81.40;;;;;;5137530;27;20038;-74
2024/04/24 12:27:04;;;;;;;1.55;0.75;;;9.00;81.30;;;;;;5137103;27;20058;-73
2024/04/24 12:29:30;;;;;;;1.77;0.50;;;9.10;81.50;;;;;;5120969;27;20130;-74
2024/04/24 12:31:56;;;;;;;1.70;0.65;;;9.10;81.30;;;;;;5156186;27;20126;-73
2024/04/24 12:34:24;;;;;;;0.40;0.40;;;9.30;81.20;;;;;;5137430;27;20064;-74
2024/04/24 12:36:51;;;;;;;1.33;0.52;;;9.30;80.90;;;;;;5104398;27;20053;-75
2024/04/24 12:39:17;;;;;;;1.27;0.50;;;9.30;80.80;;;;;;5138172;27;20049;-75
2024/04/24 12:41:42;;;;;;;1.83;0.60;;;9.30;80.80;;;;;;5121113;27;20122;-74
2024/04/24 12:44:08;;;;;;;1.75;0.25;;;9.40;80.70;;;;;;5102964;27;20505;-74
2024/04/24 12:46:34;;;;;;;0.60;0.50;;;9.50;80.50;;;;;;5119144;27;20038;-74
2024/04/24 12:49:02;;;;;;;1.10;0.60;;;9.70;80.30;;;;;;5138812;27;20050;-75
2024/04/24 12:51:28;;;;;;;1.35;0.40;;;9.60;79.80;;;;;;5137732;27;20042;-75
2024/04/24 12:53:53;;;;;;;1.35;0.50;;;9.60;79.80;;;;;;5107748;27;20061;-76
2024/04/24 12:56:19;;;;;;;1.60;0.55;;;9.60;79.70;;;;;;5121033;27;20039;-73
2024/04/24 12:58:45;;;;;;;1.40;0.60;;;9.50;79.70;;;;;;5155760;27;20027;-73